• Join FlightAware (Why Join?)
  • Login
  • US Flag 
07:48AM EST


 

Airport Tracker/Info


-or-


 

Live Flight TrackerFlight Track Log ✈ N524NK ✈ 27-Apr-2013 ✈ KFLL - KDTW

Flight Track Log - Related Links

Times and Time Zones

All times are in EDT time to prevent confusion due to time zone crossing. See the N524NK flight status page for this flight to view local times or setup timezone preferences in your user account.

Time Position Orientation Groundspeed Altitude Reporting Facility
EDT Latitude Longitude Course Direction KTS MPH feet Rate Location/Type
08:31PM 26.0780 -80.1190 85° East 148 170 1,400  Level FlightAware
08:31PM 26.0790 -80.0940 87° East 169 194 2,200 1,620 Climbing FlightAware
08:32PM 26.0810 -80.0720 84° East 189 217 2,900 1,800 Climbing FlightAware
08:32PM 26.0910 -80.0590 49° Northeast 203 234 3,400 1,800 Climbing FlightAware
08:32PM 26.1030 -80.0550 17° North 219 252 3,800 1,680 Climbing FlightAware
08:33PM 26.1370 -80.0590 354° North 262 302 4,700 2,460 Climbing FlightAware
08:33PM 26.1690 -80.0690 344° North 275 316 6,100 3,300 Climbing FlightAware
08:33PM 26.1840 -80.0810 324° Northwest 284 327 6,900 3,180 Climbing FlightAware
08:34PM 26.1960 -80.1000 305° West 288 331 7,700 2,400 Climbing FlightAware
08:34PM 26.2160 -80.1380 300° West 295 339 8,700 1,260 Climbing FlightAware
08:35PM 26.2310 -80.1710 297° West 302 348 8,900 120 Climbing FlightAware
08:35PM 26.2440 -80.1970 299° West 302 348 8,800 -120 Descending FlightAware
08:36PM 26.2560 -80.2760 280° West 303 349 8,800  Level FlightAware
08:36PM 26.2580 -80.3000 275° West 302 348 8,800 840 Level FlightAware
08:37PM 26.2650 -80.3620 277° West 303 349 9,600 1,560 Climbing FlightAware
08:37PM 26.2750 -80.4260 280° West 334 384 10,900 1,920 Climbing FlightAware
08:38PM 26.2910 -80.5350 279° West 370 426 12,800 2,220 Climbing FlightAware
08:40PM 26.3650 -80.6610 303° West 374 430 16,200 2,400 Climbing FlightAware
08:41PM 26.4630 -80.7560 319° Northwest 391 450 19,000 2,100 Climbing FlightAware
08:42PM 26.5720 -80.8130 335° Northwest 405 466 21,100 1,740 Climbing FlightAware
08:43PM 26.7030 -80.8790 336° Northwest 419 482 23,100 1,500 Climbing FlightAware
08:44PM 26.8340 -80.9280 342° North 436 502 24,800 1,440 Climbing FlightAware
08:45PM 26.9240 -80.9600 342° North 441 507 25,900 1,380 Climbing FlightAware
08:47PM 27.1090 -81.0320 341° North 442 509 28,100 1,260 Climbing FlightAware
08:48PM 27.2660 -81.0920 341° North 461 531 29,600 1,320 Climbing FlightAware
08:49PM 27.4170 -81.1420 344° North 452 520 31,600 1,320 Climbing FlightAware
08:50PM 27.5040 -81.1520 354° North 457 526 32,200 900 Climbing FlightAware
08:51PM 27.5900 -81.1630 354° North 460 529 32,800 1,020 Climbing FlightAware
08:51PM 27.6820 -81.1740 354° North 458 527 33,700 1,260 Climbing FlightAware
08:52PM 27.7560 -81.1830 354° North 450 518 34,600 1,260 Climbing FlightAware
08:53PM 27.8530 -81.1950 354° North 439 505 35,500 1,020 Climbing FlightAware
08:54PM 27.9340 -81.2050 354° North 438 504 36,100 900 Climbing FlightAware
08:54PM 28.0170 -81.2160 353° North 437 503 36,700 600 Climbing FlightAware
08:55PM 28.1090 -81.2270 354° North 437 503 37,000 180 Climbing FlightAware
08:56PM 28.1880 -81.2370 354° North 437 503 37,000  Level FlightAware
08:56PM 28.2840 -81.2480 354° North 435 501 37,000  Level FlightAware
08:57PM 28.3660 -81.2590 353° North 435 501 37,000  Level FlightAware
08:58PM 28.4460 -81.2770 349° North 438 504 37,000  Level FlightAware
08:58PM 28.5330 -81.3070 343° North 438 504 37,000  Level FlightAware
08:59PM 28.6100 -81.3330 343° North 439 505 37,000  Level FlightAware
09:00PM 28.6980 -81.3630 343° North 438 504 37,000  Level FlightAware
09:01PM 28.7780 -81.3910 343° North 439 505 37,000  Level FlightAware
09:01PM 28.8540 -81.4170 343° North 438 504 37,000  Level FlightAware
09:02PM 28.9400 -81.4470 343° North 438 504 37,000  Level FlightAware
09:03PM 29.0200 -81.4740 344° North 435 501 37,000  Level FlightAware
09:03PM 29.0970 -81.5010 343° North 435 501 37,000  Level FlightAware
09:04PM 29.1800 -81.5300 343° North 435 501 37,000  Level FlightAware
09:05PM 29.2870 -81.5660 344° North 437 503 37,000  Level FlightAware
09:06PM 29.3770 -81.5880 348° North 444 511 37,000  Level FlightAware
09:06PM 29.4470 -81.5970 354° North 437 503 37,000  Level FlightAware
09:07PM 29.5300 -81.6080 353° North 437 503 37,000  Level FlightAware
09:08PM 29.6320 -81.6200 354° North 447 514 37,000  Level FlightAware
09:08PM 29.7260 -81.6320 354° North 446 513 37,000  Level FlightAware
09:09PM 29.8340 -81.6470 353° North 446 513 37,000  Level FlightAware
09:10PM 29.9650 -81.6630 354° North 444 511 37,000  Level FlightAware
09:11PM 30.0310 -81.6720 353° North 445 512 37,000  Level FlightAware
09:12PM 30.1000 -81.6820 353° North 445 512 37,000  Level FlightAware
09:12PM 30.1870 -81.6940 353° North 445 512 37,000  Level FlightAware
09:13PM 30.2560 -81.7040 353° North 445 512 37,000  Level FlightAware
09:14PM 30.3810 -81.7160 355° North 442 509 37,000  Level FlightAware
09:15PM 30.4650 -81.7280 353° North 442 509 37,000  Level FlightAware
09:15PM 30.5390 -81.7370 354° North 442 509 37,000  Level FlightAware
09:16PM 30.6220 -81.7480 353° North 442 509 37,000  Level FlightAware
09:17PM 30.6910 -81.7580 353° North 442 509 37,000  Level FlightAware
09:17PM 30.7600 -81.7680 353° North 442 509 37,000  Level FlightAware
09:18PM 30.8460 -81.7810 353° North 442 509 37,000  Level FlightAware
09:19PM 30.9150 -81.7900 354° North 442 509 37,000  Level FlightAware
09:19PM 30.9840 -81.8000 353° North 442 509 37,000  Level FlightAware
09:20PM 31.0530 -81.8100 353° North 442 509 37,000  Level FlightAware
09:21PM 31.1220 -81.8200 353° North 442 509 37,000  Level FlightAware
09:22PM 31.2080 -81.8320 353° North 442 509 37,000  Level FlightAware
09:22PM 31.2770 -81.8420 353° North 442 509 37,000  Level FlightAware
09:23PM 31.3460 -81.8520 353° North 442 509 37,000  Level FlightAware
09:24PM 31.4150 -81.8620 353° North 442 509 37,000  Level FlightAware
09:24PM 31.4840 -81.8720 353° North 442 509 37,000  Level FlightAware
09:25PM 31.5710 -81.8850 353° North 442 509 37,000  Level FlightAware
09:29PM 32.1810 -81.9530 355° North 437 503 37,000  Level FlightAware
09:29PM 32.2670 -81.9650 353° North 437 503 37,000  Level FlightAware
09:30PM 32.3620 -81.9780 353° North 437 503 37,000  Level FlightAware
09:31PM 32.4520 -81.9900 354° North 436 502 37,000  Level FlightAware
09:32PM 32.5320 -82.0010 353° North 436 502 37,000  Level FlightAware
09:32PM 32.6130 -82.0110 354° North 436 502 37,000  Level FlightAware
09:33PM 32.7010 -82.0230 353° North 435 501 37,000  Level FlightAware
09:34PM 32.7810 -82.0340 353° North 435 501 37,000  Level FlightAware
09:34PM 32.8600 -82.0450 353° North 435 501 37,000  Level FlightAware
09:35PM 32.9440 -82.0570 353° North 436 502 37,000  Level FlightAware
09:36PM 33.0250 -82.0680 354° North 438 504 37,000  Level FlightAware
09:36PM 33.1220 -82.0810 354° North 440 506 37,000  Level FlightAware
09:37PM 33.2030 -82.0920 354° North 441 507 37,000  Level FlightAware
09:38PM 33.2720 -82.1020 353° North 441 507 37,000  Level FlightAware
09:39PM 33.3760 -82.1160 354° North 440 506 37,000  Level FlightAware
09:39PM 33.4490 -82.1260 353° North 439 505 37,000  Level FlightAware
09:40PM 33.5370 -82.1380 354° North 439 505 37,000  Level FlightAware
09:41PM 33.6270 -82.1510 353° North 440 506 37,000  Level FlightAware
09:41PM 33.7000 -82.1560 357° North 447 514 37,000  Level FlightAware
09:42PM 33.7410 -82.1540 North 450 518 37,000  Level FlightAware
09:42PM 33.8340 -82.1380 North 457 526 37,000  Level FlightAware
09:43PM 33.9170 -82.1160 12° North 459 528 37,000  Level FlightAware
09:44PM 34.0120 -82.0920 12° North 460 529 37,000  Level FlightAware
09:44PM 34.0870 -82.0740 11° North 462 532 37,000  Level FlightAware
09:45PM 34.1790 -82.0520 11° North 461 531 37,000  Level FlightAware
09:46PM 34.2730 -82.0280 12° North 461 531 37,000  Level FlightAware
09:46PM 34.3560 -82.0080 11° North 461 531 37,000  Level FlightAware
09:47PM 34.4390 -81.9870 12° North 461 531 37,000  Level FlightAware
09:48PM 34.5030 -81.9715 11° North 460 529 37,000  Level FlightAware ADS-B
09:48PM 34.5658 -81.9559 12° North 460 529 37,000  Level FlightAware ADS-B
09:49PM 34.6260 -81.9410 12° North 462 532 37,000  Level FlightAware
09:49PM 34.6739 -81.9289 12° North 461 531 37,000  Level FlightAware ADS-B
09:50PM 34.7802 -81.9023 12° North 463 533 37,000  Level FlightAware ADS-B
09:50PM 34.8441 -81.8864 12° North 464 534 37,000  Level FlightAware ADS-B
09:51PM 34.9085 -81.8702 12° North 464 534 37,000  Level FlightAware ADS-B
09:51PM 34.9753 -81.8534 12° North 465 535 37,000  Level FlightAware ADS-B
09:52PM 35.0400 -81.8372 12° North 464 534 37,000  Level FlightAware ADS-B
09:52PM 35.1068 -81.8205 12° North 464 534 37,000  Level FlightAware ADS-B
09:53PM 35.1720 -81.8040 12° North 462 532 37,000  Level FlightAware ADS-B
09:53PM 35.2386 -81.7871 12° North 463 533 37,000  Level FlightAware ADS-B
09:54PM 35.3038 -81.7704 12° North 464 534 37,000  Level FlightAware ADS-B
09:54PM 35.3688 -81.7541 12° North 465 535 37,000  Level FlightAware ADS-B
09:55PM 35.4320 -81.7382 12° North 466 536 37,000  Level FlightAware ADS-B
09:55PM 35.4968 -81.7216 12° North 468 539 37,000  Level FlightAware ADS-B
09:56PM 35.5659 -81.7041 12° North 468 539 37,000  Level FlightAware ADS-B
09:57PM 35.6344 -81.6865 12° North 468 539 37,000  Level FlightAware ADS-B
09:57PM 35.7058 -81.6685 12° North 468 539 37,000  Level FlightAware ADS-B
09:58PM 35.7722 -81.6516 12° North 468 539 37,000  Level FlightAware ADS-B
09:58PM 35.8367 -81.6350 12° North 469 540 37,000  Level FlightAware ADS-B
09:59PM 35.9006 -81.6186 12° North 469 540 37,000  Level FlightAware ADS-B
09:59PM 35.9658 -81.6018 12° North 469 540 37,000  Level FlightAware ADS-B
10:00PM 36.0298 -81.5852 12° North 469 540 37,000  Level FlightAware ADS-B
10:00PM 36.1113 -81.5643 12° North 467 537 37,000  Level FlightAware ADS-B
10:01PM 36.1970 -81.5450 10° North 469 540 37,000  Level FlightAware
10:02PM 36.2690 -81.5270 11° North 469 540 37,000  Level FlightAware
10:03PM 36.3420 -81.5100 11° North 469 540 37,000  Level FlightAware
10:03PM 36.4249 -81.4827 15° North 465 535 37,000  Level FlightAware ADS-B
10:03PM 36.4891 -81.4660 12° North 464 534 37,000  Level FlightAware ADS-B
10:04PM 36.5556 -81.4485 12° North 463 533 37,000  Level FlightAware ADS-B
10:04PM 36.6244 -81.4304 12° North 463 533 37,000  Level FlightAware ADS-B
10:05PM 36.6411 -81.4264 12° North 462 532 37,000  Level Indianapolis Center
10:10PM 37.3432 -81.3264 12° North 440 506 37,000  Level FlightAware ADS-B
10:11PM 37.4051 -81.3384 351° North 440 506 37,000  Level FlightAware ADS-B
10:11PM 37.4662 -81.3505 351° North 440 506 37,000  Level FlightAware ADS-B
10:12PM 37.5393 -81.3651 351° North 440 506 37,000  Level FlightAware ADS-B
10:13PM 37.6440 -81.3860 351° North 440 506 37,000  Level FlightAware
10:13PM 37.6621 -81.3895 351° North 440 506 37,000  Level FlightAware ADS-B
10:13PM 37.7240 -81.4020 351° North 439 505 37,000  Level FlightAware
10:14PM 37.7658 -81.4103 351° North 439 505 37,000  Level FlightAware ADS-B
10:15PM 37.8940 -81.4360 351° North 439 505 37,000  Level FlightAware
10:15PM 37.9850 -81.4540 351° North 439 505 37,000  Level FlightAware
10:16PM 38.0660 -81.4700 351° North 438 504 37,000  Level FlightAware
10:17PM 38.1530 -81.4880 351° North 437 503 37,000  Level FlightAware
10:18PM 38.2340 -81.5040 351° North 436 502 37,000  Level FlightAware
10:18PM 38.3130 -81.5200 351° North 436 502 37,000  Level FlightAware
10:19PM 38.4060 -81.5380 351° North 436 502 37,000  Level FlightAware
10:20PM 38.4830 -81.5540 351° North 436 502 37,000  Level FlightAware
10:20PM 38.5720 -81.5720 351° North 437 503 37,000  Level FlightAware
10:21PM 38.6520 -81.5880 351° North 439 505 37,000  Level FlightAware
10:22PM 38.7340 -81.6050 351° North 440 506 37,000  Level FlightAware
10:22PM 38.8250 -81.6240 351° North 442 509 37,000  Level FlightAware
10:23PM 38.9050 -81.6400 351° North 443 510 37,000  Level FlightAware
10:24PM 38.9970 -81.6590 351° North 444 511 37,000  Level FlightAware
10:25PM 39.0760 -81.6750 351° North 444 511 37,000  Level FlightAware
10:25PM 39.1570 -81.6920 351° North 444 511 37,000  Level FlightAware
10:26PM 39.2500 -81.7110 351° North 445 512 37,000  Level FlightAware
10:27PM 39.3280 -81.7270 351° North 445 512 37,000  Level FlightAware
10:27PM 39.4130 -81.7450 351° North 446 513 37,000  Level FlightAware
10:28PM 39.5070 -81.7650 351° North 447 514 37,000  Level FlightAware
10:29PM 39.5890 -81.7820 351° North 447 514 37,000  Level FlightAware
10:29PM 39.6790 -81.8000 351° North 446 513 37,000  Level FlightAware
10:30PM 39.7600 -81.8170 351° North 446 513 37,000  Level FlightAware
10:31PM 39.8540 -81.8370 351° North 445 512 37,000  Level FlightAware
10:32PM 39.9350 -81.8540 351° North 444 511 37,000  Level FlightAware
10:32PM 40.0170 -81.8720 350° North 443 510 37,000 -240 Level FlightAware
10:33PM 40.1050 -81.8900 351° North 445 512 36,700 -1,500 Descending FlightAware
10:34PM 40.1880 -81.9080 351° North 448 516 34,900 -2,580 Descending FlightAware
10:34PM 40.2690 -81.9260 350° North 447 514 33,300 -2,280 Descending FlightAware
10:35PM 40.3590 -81.9450 351° North 437 503 31,700 -2,160 Descending FlightAware
10:36PM 40.4390 -81.9620 351° North 429 494 30,300 -1,200 Descending FlightAware
10:36PM 40.5300 -81.9810 351° North 429 494 30,000 -240 Descending FlightAware
10:37PM 40.6060 -81.9980 350° North 425 489 30,000  Level FlightAware
10:38PM 40.6930 -82.0170 351° North 425 489 30,000  Level FlightAware
10:39PM 40.7710 -82.0330 351° North 427 491 30,000  Level FlightAware
10:39PM 40.8490 -82.0510 350° North 427 491 30,000  Level FlightAware
10:40PM 40.9280 -82.0990 335° Northwest 413 475 30,000 -720 Level FlightAware
10:41PM 40.9930 -82.1550 327° Northwest 415 478 29,000 -1,860 Descending FlightAware
10:41PM 41.0640 -82.2140 328° Northwest 405 466 27,400 -2,160 Descending FlightAware
10:42PM 41.1250 -82.2660 327° Northwest 399 459 26,000 -2,220 Descending FlightAware
10:43PM 41.1880 -82.3190 328° Northwest 392 451 24,500 -2,160 Descending FlightAware
10:43PM 41.2550 -82.3760 327° Northwest 387 445 23,000 -2,160 Descending FlightAware
10:44PM 41.3160 -82.4280 327° Northwest 381 438 21,500 -2,160 Descending FlightAware
10:45PM 41.3820 -82.4840 328° Northwest 375 432 20,000 -1,980 Descending FlightAware
10:46PM 41.4400 -82.5340 327° Northwest 370 426 18,700 -2,220 Descending FlightAware
10:46PM 41.4990 -82.5850 327° Northwest 369 425 17,100 -1,140 Descending FlightAware
10:47PM 41.5550 -82.6330 327° Northwest 369 425 17,100  Level FlightAware
10:48PM 41.6040 -82.6750 327° Northwest 369 425 17,100  Level FlightAware
10:48PM 41.6530 -82.7180 327° Northwest 369 425 17,100 -3,780 Level FlightAware
10:49PM 41.7320 -82.7870 327° Northwest 344 396 11,800 -3,780 Descending FlightAware
10:50PM 41.7770 -82.8420 318° Northwest 351 404 11,800  Level FlightAware
10:50PM 41.8260 -82.9000 319° Northwest 351 404 11,800  Level FlightAware
10:51PM 41.8670 -82.9490 318° Northwest 351 404 11,800 -1,260 Level FlightAware
10:52PM 41.9156 -83.0081 318° Northwest 348 400 10,300 -1,860 Descending Cleveland Center
10:53PM 41.9850 -83.0750 324° Northwest 327 376 9,000 -1,620 Descending Cleveland Center
10:53PM 42.0078 -83.0869 339° North 300 345 8,200 -2,400 Descending Cleveland Center
10:54PM 42.0656 -83.1061 346° North 299 344 6,600 -2,100 Descending Cleveland Center
10:54PM 42.0925 -83.1156 345° North 299 344 6,100 -2,100 Descending Cleveland Center
10:55PM 42.1419 -83.1372 342° North 294 338 4,500 -2,460 Descending Cleveland Center
10:55PM 42.1711 -83.1467 347° North 285 328 3,600 -1,500 Descending Cleveland Center
10:56PM 42.2144 -83.1653 342° North 278 320 3,000 -840 Descending Cleveland Center
10:56PM 42.2372 -83.1747 343° North 240 276 2,800 -540 Descending Cleveland Center
10:57PM 42.2947 -83.2050 339° North 212 244 2,300 -360 Descending Cleveland Center
10:58PM 42.3183 -83.2678 297° West 161 185 2,100 -180 Descending Cleveland Center
10:59PM 42.2864 -83.2944 212° Southwest 150 173 2,000 -480 Descending Cleveland Center
11:00PM 42.2525 -83.3211 210° Southwest 133 153 1,200 -840 Descending Cleveland Center
11:02PM 42.2124 -83.3534 323° Northwest  Level Estimated
11:09PM 42.2124 -83.3534 312° West  Level Estimated